John Day, OR (97845)

12:59 PM PDT on March 29, 2017 (GMT -0700)
Grant County Airport south, Oregon | | Change Station
Active Advisory: Flood Warning

Elev 3696 ft 44.40 °N, 118.97 °W | Updated 37 seconds ago

Overcast
Overcast
51.6 °F
Feels Like 51.6 °F
N
19.1
Wind Variable Wind from SSW

Today
High -- | Low -- °F
--% Chance of Precip.
Yesterday
High -- | Low -- °F
Precip. -- in
Pressure 30.03 in
Visibility 10.0 miles
Clouds Overcast 3700 ft
Dew Point 42 °F
Humidity 71%
Rainfall 0.00 in
Snow Depth Not available.
6:41 AM 7:19 PM
Waxing Crescent, 4% visible
METAR KGCD 291935Z AUTO 19012KT 10SM OVC037 12/06 A3003 RMK AO2 T01170060
Pressure 30.03 in
Visibility 10.0 miles
Clouds Overcast 3700 ft
Dew Point 42 °F
Humidity 71%
Rainfall 0.00 in
Snow Depth Not available.
6:41 AM 7:19 PM
Waxing Crescent, 4% visible
METAR KGCD 291935Z AUTO 19012KT 10SM OVC037 12/06 A3003 RMK AO2 T01170060

Get Your Daily Forecast Email!

Thanks for signing up!

Be on the lookout for a verification email in your inbox.

You'll start receiving severe weather alerts in your inbox..

×

10-Day Weather Forecast

Almanac

Astronomy

Mar. 29, 2017 Rise Set
Actual Time
Civil Twilight
Nautical Twilight
Astronomical Twilight
Moon
Length of Visible Light
Length of Day
Tomorrow will be .
, % of the Moon is Illuminated

Today's Extremes

State Highs State Lows

Community

WunderPhotos

Upload Photos

1,962,540 photos uploaded!

WunderBlog® & News

Nearby

Air Quality

  Air Quality AQ Index Pollutant
Not available.

Snow Depth

Station Depth Elevation

Earthquake Activity

City Distance Mag. Time & Date
Minimum magnitude displayed is 2.5.

Earthquake Activity

City Distance Mag. Time & Date
Minimum magnitude displayed is 2.5.

Coastal Water Temperatures

Place Temperature

Stations

Nearby Weather Stations

Station Location Temp. Windchill Dew Point Humidity Wind Precip. Elev Updated Type
                   

Watches & Warnings

Flood Warning
Issued: 12:57 PM PDT Mar. 29, 2017 – National Weather Service

The National Weather Service in Pendleton has issued a

* Flood Warning for
the John Day river at Service Creek.
* From Thursday afternoon to Saturday morning.
* At 12:30 PM Wednesday, the stage was 8.8 feet.
* Flood stage is 11.5 feet.
* Minor flooding is forecast.
* Forecast... rise above flood stage by tomorrow afternoon and
continue to rise to near 12.5 feet by Friday morning. The river
will fall below flood stage by Saturday morning.


Lat... Lon 4506 12035 4492 11996 4466 11990 4446 12055 4505 12063